createdAt,value
2018-12-31T00:01:37.747Z,5.85
2018-12-31T00:04:08.388Z,5.62
2018-12-31T00:06:38.873Z,6.70
2018-12-31T00:09:09.509Z,5.53
2018-12-31T00:11:39.989Z,6.33
2018-12-31T00:14:10.477Z,5.10
2018-12-31T00:16:41.026Z,5.45
2018-12-31T00:19:11.496Z,6.83
2018-12-31T00:21:41.983Z,6.83
2018-12-31T00:24:12.522Z,6.28
2018-12-31T00:26:43.033Z,7.05
2018-12-31T00:29:13.530Z,6.30
2018-12-31T00:31:44.070Z,5.83
2018-12-31T00:34:14.554Z,6.20
2018-12-31T00:36:45.125Z,6.45
2018-12-31T00:39:15.788Z,8.23
2018-12-31T00:41:46.370Z,6.95
2018-12-31T00:44:16.916Z,7.20
2018-12-31T00:46:47.459Z,7.12
2018-12-31T00:49:18.058Z,6.55
2018-12-31T00:51:48.627Z,5.67
2018-12-31T00:54:19.215Z,7.00
2018-12-31T00:56:49.730Z,8.10
2018-12-31T00:59:20.270Z,8.83
2018-12-31T01:01:50.839Z,6.75
2018-12-31T01:04:21.348Z,7.85
2018-12-31T01:06:51.857Z,7.50
2018-12-31T01:09:22.488Z,7.65
2018-12-31T01:11:53.069Z,6.72
2018-12-31T01:14:23.651Z,8.65
2018-12-31T01:16:54.280Z,8.70
2018-12-31T01:19:24.815Z,7.10
2018-12-31T01:21:55.344Z,7.65
2018-12-31T01:24:25.963Z,8.68
2018-12-31T01:26:56.517Z,7.75
2018-12-31T01:29:27.066Z,8.40
2018-12-31T01:31:57.601Z,8.05
2018-12-31T01:34:28.263Z,8.60
2018-12-31T01:36:58.773Z,8.20
2018-12-31T01:39:29.320Z,6.72
2018-12-31T01:41:59.851Z,8.43
2018-12-31T01:44:30.364Z,7.37
2018-12-31T01:47:00.940Z,7.77
2018-12-31T01:49:31.508Z,7.35
2018-12-31T01:52:02.034Z,6.90
2018-12-31T01:54:32.640Z,7.25
2018-12-31T01:57:03.247Z,6.87
2018-12-31T01:59:33.901Z,8.33
2018-12-31T02:02:04.523Z,7.92
2018-12-31T02:04:35.129Z,9.60
2018-12-31T02:07:05.658Z,8.28
2018-12-31T02:09:36.380Z,8.13
2018-12-31T02:12:06.901Z,7.80
2018-12-31T02:14:37.457Z,10.32
2018-12-31T02:17:08.092Z,8.55
2018-12-31T02:19:38.774Z,8.55
2018-12-31T02:22:09.369Z,7.90
2018-12-31T02:24:39.980Z,8.50
2018-12-31T02:27:10.620Z,9.15
2018-12-31T02:29:41.173Z,8.75
2018-12-31T02:32:11.717Z,8.40
2018-12-31T02:34:42.320Z,8.68
2018-12-31T02:37:13.144Z,8.70
2018-12-31T02:39:43.739Z,9.70
2018-12-31T02:42:14.244Z,9.88
2018-12-31T02:44:44.753Z,10.23
2018-12-31T02:47:15.333Z,9.13
2018-12-31T02:49:45.950Z,10.05
2018-12-31T02:52:16.564Z,9.95
2018-12-31T02:54:47.377Z,9.60
2018-12-31T02:57:17.956Z,8.80
2018-12-31T02:59:48.467Z,10.70
2018-12-31T03:02:19.054Z,11.40
2018-12-31T03:04:49.610Z,11.90
2018-12-31T03:07:20.137Z,10.45
2018-12-31T03:09:50.719Z,11.55
2018-12-31T03:12:21.217Z,10.60
2018-12-31T03:14:51.763Z,12.20
2018-12-31T03:17:22.304Z,12.40
2018-12-31T03:19:52.790Z,12.65
2018-12-31T03:22:23.316Z,10.60
2018-12-31T03:24:54.007Z,9.35
2018-12-31T03:27:24.515Z,9.20
2018-12-31T03:29:55.040Z,11.50
2018-12-31T03:32:25.651Z,9.73
2018-12-31T03:34:56.190Z,10.45
2018-12-31T03:37:26.675Z,10.40
2018-12-31T03:39:57.272Z,10.80
2018-12-31T03:42:27.805Z,10.93
2018-12-31T03:44:58.316Z,9.60
2018-12-31T03:47:28.857Z,10.43
2018-12-31T03:49:59.392Z,10.38
2018-12-31T03:52:29.891Z,10.60
2018-12-31T03:55:00.470Z,10.80
2018-12-31T03:57:31.016Z,9.63
2018-12-31T04:00:01.558Z,10.10
2018-12-31T04:02:32.119Z,10.80
2018-12-31T04:05:02.651Z,10.58
2018-12-31T04:07:33.212Z,10.85
2018-12-31T04:10:03.807Z,10.58
2018-12-31T04:12:34.340Z,10.45
2018-12-31T04:15:04.919Z,10.43
2018-12-31T04:17:35.497Z,11.15
2018-12-31T04:20:06.201Z,10.63
2018-12-31T04:22:40.039Z,9.58
2018-12-31T04:25:10.577Z,10.00
2018-12-31T04:27:41.151Z,10.40
2018-12-31T04:30:11.797Z,10.63
2018-12-31T04:32:42.288Z,9.53
2018-12-31T04:35:12.849Z,9.70
2018-12-31T04:37:43.427Z,9.93
2018-12-31T04:40:13.965Z,10.90
2018-12-31T04:42:44.458Z,10.32
2018-12-31T04:45:15.008Z,9.18
2018-12-31T04:47:45.597Z,9.08
2018-12-31T04:50:16.253Z,10.28
2018-12-31T04:52:46.833Z,9.15
2018-12-31T04:55:17.358Z,10.13
2018-12-31T04:57:47.866Z,9.18
2018-12-31T05:00:18.476Z,8.88
2018-12-31T05:02:49.155Z,8.60
2018-12-31T05:05:19.711Z,7.67
2018-12-31T05:07:50.334Z,8.35
2018-12-31T05:10:20.911Z,8.88
2018-12-31T05:12:51.475Z,9.35
2018-12-31T05:15:22.259Z,7.90
2018-12-31T05:17:52.902Z,9.63
2018-12-31T05:20:23.483Z,8.98
2018-12-31T05:22:54.937Z,7.53
2018-12-31T05:25:25.572Z,8.50
2018-12-31T05:27:56.192Z,8.98
2018-12-31T05:30:26.784Z,9.00
2018-12-31T05:32:57.496Z,7.95
2018-12-31T05:35:28.181Z,7.90
2018-12-31T05:37:58.976Z,9.13
2018-12-31T05:40:29.630Z,8.30
2018-12-31T05:43:00.416Z,9.20
2018-12-31T05:45:31.187Z,8.80
2018-12-31T05:48:01.839Z,9.28
2018-12-31T05:50:32.503Z,8.70
2018-12-31T05:53:03.151Z,10.10
2018-12-31T05:55:33.792Z,8.65
2018-12-31T05:58:04.858Z,8.70
2018-12-31T06:00:36.261Z,9.30
2018-12-31T06:03:06.853Z,8.60
2018-12-31T06:05:37.487Z,9.65
2018-12-31T06:08:08.096Z,8.78
2018-12-31T06:10:38.651Z,8.58
2018-12-31T06:13:09.249Z,9.35
2018-12-31T06:15:39.904Z,8.15
2018-12-31T06:18:10.500Z,8.40
2018-12-31T06:20:41.120Z,10.17
2018-12-31T06:23:11.966Z,8.70
2018-12-31T06:25:42.488Z,9.05
2018-12-31T06:28:13.169Z,9.08
2018-12-31T06:30:43.956Z,9.28
2018-12-31T06:33:14.635Z,9.00
2018-12-31T06:35:45.267Z,9.25
2018-12-31T06:38:15.780Z,8.30
2018-12-31T06:40:46.262Z,9.15
2018-12-31T06:43:16.739Z,10.00
2018-12-31T06:45:47.271Z,9.53
2018-12-31T06:48:17.746Z,9.77
2018-12-31T06:50:48.239Z,9.75
2018-12-31T06:53:19.017Z,8.90
2018-12-31T06:55:49.512Z,8.90
2018-12-31T06:58:19.966Z,8.80
2018-12-31T07:00:50.524Z,9.50
2018-12-31T07:03:20.979Z,8.43
2018-12-31T07:05:51.457Z,8.70
2018-12-31T07:08:21.981Z,10.23
2018-12-31T07:10:52.467Z,8.90
2018-12-31T07:13:23.007Z,8.50
2018-12-31T07:15:53.534Z,8.70
2018-12-31T07:18:24.012Z,10.20
2018-12-31T07:20:54.455Z,9.60
2018-12-31T07:23:24.998Z,8.75
2018-12-31T07:25:55.656Z,8.85
2018-12-31T07:28:26.133Z,10.00
2018-12-31T07:30:56.657Z,8.70
2018-12-31T07:33:27.165Z,8.55
2018-12-31T07:35:57.669Z,8.10
2018-12-31T07:38:28.179Z,9.50
2018-12-31T07:40:58.704Z,9.03
2018-12-31T07:43:29.045Z,6.53
2018-12-31T07:45:59.575Z,7.85
2018-12-31T07:48:29.994Z,6.92
2018-12-31T07:51:00.452Z,9.68
2018-12-31T07:53:31.028Z,7.85
2018-12-31T07:56:01.440Z,8.10
2018-12-31T07:58:31.938Z,7.67
2018-12-31T08:01:02.484Z,7.37
2018-12-31T08:03:32.930Z,7.83
2018-12-31T08:06:03.449Z,9.13
2018-12-31T08:08:33.956Z,8.65
2018-12-31T08:11:04.468Z,8.55
2018-12-31T08:13:34.998Z,8.40
2018-12-31T08:16:05.595Z,8.88
2018-12-31T08:18:36.098Z,7.57
2018-12-31T08:21:06.581Z,8.73
2018-12-31T08:23:37.113Z,6.90
2018-12-31T08:26:09.220Z,8.28
2018-12-31T08:28:39.671Z,7.05
2018-12-31T08:31:10.218Z,8.90
2018-12-31T08:33:40.702Z,8.68
2018-12-31T08:36:11.199Z,8.10
2018-12-31T08:38:41.722Z,8.27
2018-12-31T08:41:12.196Z,7.40
2018-12-31T08:43:42.694Z,8.78
2018-12-31T08:46:13.288Z,8.60
2018-12-31T08:48:43.779Z,6.72
2018-12-31T08:51:14.261Z,9.00
2018-12-31T08:53:44.829Z,7.62
2018-12-31T08:56:15.319Z,6.93
2018-12-31T08:58:45.797Z,8.30
2018-12-31T09:01:16.314Z,7.15
2018-12-31T09:03:46.770Z,7.50
2018-12-31T09:06:17.275Z,7.92
2018-12-31T09:08:47.803Z,7.37
2018-12-31T09:11:18.292Z,6.78
2018-12-31T09:13:48.808Z,7.37
2018-12-31T09:16:19.426Z,7.08
2018-12-31T09:18:49.892Z,7.70
2018-12-31T09:21:20.357Z,6.80
2018-12-31T09:23:50.951Z,6.92
2018-12-31T09:26:21.421Z,7.40
2018-12-31T09:28:51.897Z,6.80
2018-12-31T09:31:22.420Z,7.42
2018-12-31T09:33:52.945Z,7.70
2018-12-31T09:36:23.429Z,7.20
2018-12-31T09:38:53.972Z,6.53
2018-12-31T09:41:24.390Z,6.90
2018-12-31T09:43:54.895Z,6.00
2018-12-31T09:46:25.438Z,6.28
2018-12-31T09:48:55.891Z,7.22
2018-12-31T09:51:26.392Z,5.70
2018-12-31T09:53:56.856Z,5.97
2018-12-31T09:56:27.329Z,4.83
2018-12-31T09:58:57.845Z,5.60
2018-12-31T10:01:28.442Z,5.00
2018-12-31T10:03:58.841Z,5.10
2018-12-31T10:06:29.311Z,5.47
2018-12-31T10:08:59.897Z,5.70
2018-12-31T10:11:30.304Z,5.40
2018-12-31T10:14:00.692Z,4.35
2018-12-31T10:16:31.258Z,4.10
2018-12-31T10:19:01.708Z,5.70
2018-12-31T10:21:32.214Z,5.10
2018-12-31T10:24:02.771Z,4.30
2018-12-31T10:26:33.252Z,4.58
2018-12-31T10:29:03.776Z,5.12
2018-12-31T10:31:34.348Z,4.12
2018-12-31T10:34:04.896Z,4.55
2018-12-31T10:36:35.385Z,4.05
2018-12-31T10:39:07.851Z,4.30
2018-12-31T10:41:38.359Z,3.60
2018-12-31T10:44:08.853Z,3.15
2018-12-31T10:46:39.354Z,3.95
2018-12-31T10:49:09.861Z,3.58
2018-12-31T10:51:40.399Z,3.62
2018-12-31T10:54:10.933Z,3.13
2018-12-31T10:56:43.136Z,3.50
2018-12-31T10:59:13.546Z,3.05
2018-12-31T11:01:44.131Z,3.33
2018-12-31T11:04:14.599Z,3.50
2018-12-31T11:06:45.083Z,4.80
2018-12-31T11:09:15.603Z,4.08
2018-12-31T11:11:46.094Z,4.50
2018-12-31T11:14:16.574Z,3.90
2018-12-31T11:16:47.178Z,3.65
2018-12-31T11:19:17.661Z,4.23
2018-12-31T11:21:48.153Z,3.87
2018-12-31T11:24:18.760Z,4.00
2018-12-31T11:26:49.211Z,2.92
2018-12-31T11:29:19.695Z,3.87
2018-12-31T11:31:50.207Z,3.70
2018-12-31T11:34:20.813Z,3.10
2018-12-31T11:36:51.240Z,3.00
2018-12-31T11:39:21.797Z,3.45
2018-12-31T11:41:52.279Z,3.00
2018-12-31T11:44:22.773Z,4.15
2018-12-31T11:46:53.284Z,3.60
2018-12-31T11:49:23.684Z,2.60
2018-12-31T11:51:54.170Z,3.40
2018-12-31T11:54:24.678Z,2.62
2018-12-31T11:56:55.168Z,3.00
2018-12-31T11:59:25.671Z,3.55
2018-12-31T12:01:56.187Z,3.40
2018-12-31T12:04:26.729Z,3.70
2018-12-31T12:06:57.230Z,3.02
2018-12-31T12:09:28.183Z,2.60
2018-12-31T12:11:58.672Z,2.40
2018-12-31T12:14:29.255Z,3.10
2018-12-31T12:16:59.729Z,3.60
2018-12-31T12:19:30.195Z,3.08
2018-12-31T12:22:00.799Z,4.90
2018-12-31T12:24:31.297Z,3.10
2018-12-31T12:27:02.065Z,3.45
2018-12-31T12:29:32.679Z,2.60
2018-12-31T12:32:03.232Z,2.90
2018-12-31T12:34:33.704Z,2.95
2018-12-31T22:02:56.846Z,3.92
2018-12-31T22:05:22.557Z,5.20
2018-12-31T22:07:53.197Z,5.72
2018-12-31T22:10:23.779Z,5.15
2018-12-31T22:12:54.537Z,6.00
2018-12-31T22:15:25.104Z,8.50
2018-12-31T22:17:55.723Z,6.13
2018-12-31T22:20:26.290Z,5.55
2018-12-31T22:22:56.878Z,5.85
2018-12-31T22:25:27.419Z,6.22
2018-12-31T22:27:57.961Z,6.00
2018-12-31T22:30:28.553Z,5.87
2018-12-31T22:32:59.084Z,6.58
2018-12-31T22:35:29.961Z,5.85
2018-12-31T22:38:00.593Z,5.70
2018-12-31T22:40:31.141Z,7.30
2018-12-31T22:43:02.230Z,6.87
2018-12-31T22:45:32.804Z,5.60
2018-12-31T22:48:03.362Z,5.53
2018-12-31T22:50:33.920Z,6.33
2018-12-31T22:53:04.495Z,6.37
2018-12-31T22:55:35.059Z,6.22
2018-12-31T22:58:05.686Z,5.30
2018-12-31T23:00:37.414Z,8.10
2018-12-31T23:03:08.010Z,12.40
2018-12-31T23:05:39.958Z,24.67
2018-12-31T23:08:10.545Z,38.38
2018-12-31T23:10:41.184Z,92.80
2018-12-31T23:13:11.700Z,92.93
2018-12-31T23:15:42.292Z,54.70
2018-12-31T23:18:12.909Z,59.10
2018-12-31T23:20:43.833Z,45.95
2018-12-31T23:23:14.640Z,46.35
2018-12-31T23:25:45.186Z,59.08
2018-12-31T23:28:15.758Z,45.65
2018-12-31T23:30:46.329Z,39.10
2018-12-31T23:33:17.003Z,26.87
2018-12-31T23:35:47.591Z,30.97
2018-12-31T23:38:18.388Z,27.55
2018-12-31T23:40:48.961Z,26.05
2018-12-31T23:43:19.607Z,25.80
2018-12-31T23:45:50.793Z,25.82
2018-12-31T23:48:21.404Z,23.62
2018-12-31T23:50:52.008Z,27.10
2018-12-31T23:53:22.629Z,24.02
2018-12-31T23:55:53.214Z,22.35
2018-12-31T23:58:23.764Z,18.70
